Time,TemperatureF,DewpointF,PressureIn,WindDirection,WindDirectionDegrees,WindSpeedMPH,WindSpeedGustMPH,Humidity,HourlyPrecipIn,Conditions,Clouds,dailyrainin,SoftwareType,DateUTC
2013-05-01 00:01:00,66.8,56.7,29.94,South,171,11.5,11.5,70,0.00,RA,,0.00,WeatherDisplay:10.37,2013-05-01 04:01:00,
2013-05-01 00:02:00,66.9,56.8,29.94,SSE,156,10.4,10.4,70,0.00,RA,,0.00,WeatherDisplay:10.37,2013-05-01 04:02:00,
2013-05-01 00:03:00,66.9,56.8,29.94,SW,214,10.4,10.4,70,0.00,RA,,0.00,WeatherDisplay:10.37,2013-05-01 04:03:00,
2013-05-01 00:08:00,66.6,56.5,29.94,SSW,192,9.2,9.2,70,0.00,RA,,0.00,WeatherDisplay:10.37,2013-05-01 04:08:00,
2013-05-01 00:13:00,66.6,56.9,29.94,SSW,206,6.0,6.0,71,0.00,CLR,,0.00,WeatherDisplay:10.37,2013-05-01 04:13:00,
2013-05-01 00:18:00,66.5,56.8,29.94,South,171,9.2,9.2,71,0.00,CLR,,0.00,WeatherDisplay:10.37,2013-05-01 04:18:00,
2013-05-01 00:23:00,66.5,56.8,29.94,South,184,1.1,1.1,71,0.00,CLR,,0.00,WeatherDisplay:10.37,2013-05-01 04:23:00,
2013-05-01 00:28:00,66.6,56.9,29.94,South,176,10.0,10.0,71,0.00,CLR,,0.00,WeatherDisplay:10.37,2013-05-01 04:28:00,
2013-05-01 00:33:00,66.5,56.8,29.94,South,169,6.9,6.9,71,0.00,CLR,,0.00,WeatherDisplay:10.37,2013-05-01 04:33:00,
2013-05-01 00:38:00,66.4,56.7,29.95,South,172,11.5,11.5,71,0.00,CLR,,0.00,WeatherDisplay:10.37,2013-05-01 04:38:00,
2013-05-01 00:43:00,66.3,56.6,29.95,South,176,3.5,3.5,71,0.00,CLR,,0.00,WeatherDisplay:10.37,2013-05-01 04:43:00,
2013-05-01 00:48:00,66.2,56.5,29.95,SSW,206,9.2,9.2,71,0.00,CLR,,0.00,WeatherDisplay:10.37,2013-05-01 04:48:00,
2013-05-01 00:53:00,66.2,56.5,29.95,SSE,163,12.0,12.0,71,0.00,CLR,,0.00,WeatherDisplay:10.37,2013-05-01 04:53:00,
2013-05-01 00:58:00,66.1,56.8,29.95,SSE,157,3.0,3.0,72,0.00,CLR,,0.00,WeatherDisplay:10.37,2013-05-01 04:58:00,
2013-05-01 01:03:00,66.0,56.7,29.95,South,183,10.4,10.4,72,0.00,CLR,,0.00,WeatherDisplay:10.37,2013-05-01 05:03:00,
2013-05-01 01:08:00,65.8,56.5,29.95,South,176,3.0,3.0,72,0.00,CLR,,0.00,WeatherDisplay:10.37,2013-05-01 05:08:00,
2013-05-01 01:13:00,65.8,56.5,29.95,SSW,195,6.9,6.9,72,0.00,CLR,,0.00,WeatherDisplay:10.37,2013-05-01 05:13:00,
2013-05-01 01:18:00,65.9,56.6,29.95,South,173,4.6,4.6,72,0.00,CLR,,0.00,WeatherDisplay:10.37,2013-05-01 05:18:00,
2013-05-01 01:23:00,65.8,56.9,29.95,SSE,155,5.0,5.0,73,0.00,CLR,,0.00,WeatherDisplay:10.37,2013-05-01 05:23:00,
2013-05-01 01:28:00,65.7,56.8,29.95,SSE,150,6.9,6.9,73,0.00,CLR,,0.00,WeatherDisplay:10.37,2013-05-01 05:28:00,
2013-05-01 01:33:00,65.7,56.8,29.95,SSE,163,6.9,6.9,73,0.00,CLR,,0.00,WeatherDisplay:10.37,2013-05-01 05:33:00,
2013-05-01 01:38:00,65.5,56.6,29.95,South,175,2.3,0.0,73,0.00,CLR,,0.00,WeatherDisplay:10.37,2013-05-01 05:38:00,
2013-05-01 01:43:00,65.5,56.6,29.95,SSW,199,6.9,6.9,73,0.00,CLR,,0.00,WeatherDisplay:10.37,2013-05-01 05:43:00,
2013-05-01 01:48:00,65.5,56.6,29.96,South,170,4.6,4.6,73,0.00,CLR,,0.00,WeatherDisplay:10.37,2013-05-01 05:48:00,
2013-05-01 01:53:00,65.4,56.5,29.96,SSE,163,11.5,11.5,73,0.00,CLR,,0.00,WeatherDisplay:10.37,2013-05-01 05:53:00,
2013-05-01 01:58:00,65.1,56.6,29.96,South,184,4.0,0.0,74,0.00,CLR,,0.00,WeatherDisplay:10.37,2013-05-01 05:58:00,
2013-05-01 02:03:00,65.0,56.5,29.96,South,178,15.0,15.0,74,0.00,CLR,,0.00,WeatherDisplay:10.37,2013-05-01 06:03:00,
2013-05-01 02:08:00,64.8,56.3,29.96,South,182,9.2,9.2,74,0.00,CLR,,0.00,WeatherDisplay:10.37,2013-05-01 06:08:00,
2013-05-01 02:13:00,64.8,56.3,29.96,SSW,198,4.6,4.6,74,0.00,CLR,,0.00,WeatherDisplay:10.37,2013-05-01 06:13:00,
2013-05-01 02:18:00,64.6,56.5,29.96,South,191,9.2,9.2,75,0.00,CLR,,0.00,WeatherDisplay:10.37,2013-05-01 06:18:00,
2013-05-01 02:23:00,64.5,56.4,29.96,South,186,9.2,9.2,75,0.00,CLR,,0.00,WeatherDisplay:10.37,2013-05-01 06:23:00,
2013-05-01 02:28:00,64.3,56.2,29.97,SSE,148,9.2,9.2,75,0.00,CLR,,0.00,WeatherDisplay:10.37,2013-05-01 06:28:00,
2013-05-01 02:33:00,64.2,56.1,29.97,South,190,5.8,5.8,75,0.00,CLR,,0.00,WeatherDisplay:10.37,2013-05-01 06:33:00,
2013-05-01 02:38:00,64.0,56.3,29.97,SSE,157,10.4,10.4,76,0.00,CLR,,0.00,WeatherDisplay:10.37,2013-05-01 06:38:00,
2013-05-01 02:43:00,64.0,56.3,29.97,South,172,5.8,5.8,76,0.00,CLR,,0.00,WeatherDisplay:10.37,2013-05-01 06:43:00,
2013-05-01 02:48:00,64.0,56.3,29.97,SSW,194,1.1,0.0,76,0.00,CLR,,0.00,WeatherDisplay:10.37,2013-05-01 06:48:00,
2013-05-01 02:53:00,63.9,56.2,29.98,South,178,5.8,5.8,76,0.00,CLR,,0.00,WeatherDisplay:10.37,2013-05-01 06:53:00,
2013-05-01 02:58:00,63.8,56.1,29.97,South,181,6.9,6.9,76,0.00,CLR,,0.00,WeatherDisplay:10.37,2013-05-01 06:58:00,
2013-05-01 03:03:00,63.8,56.1,29.98,South,179,11.5,11.5,76,0.00,CLR,,0.00,WeatherDisplay:10.37,2013-05-01 07:03:00,
2013-05-01 03:08:00,63.5,55.8,29.98,SE,142,5.0,5.0,76,0.00,CLR,,0.00,WeatherDisplay:10.37,2013-05-01 07:08:00,
2013-05-01 03:13:00,63.5,55.8,29.98,South,169,3.5,3.5,76,0.00,CLR,,0.00,WeatherDisplay:10.37,2013-05-01 07:13:00,
2013-05-01 03:18:00,63.4,56.1,29.98,SSW,194,5.8,5.8,77,0.00,CLR,,0.00,WeatherDisplay:10.37,2013-05-01 07:18:00,
2013-05-01 03:23:00,63.3,56.0,29.98,SSW,198,6.9,0.0,77,0.00,CLR,,0.00,WeatherDisplay:10.37,2013-05-01 07:23:00,
2013-05-01 03:28:00,63.1,55.8,29.98,SSW,192,3.5,3.5,77,0.00,CLR,,0.00,WeatherDisplay:10.37,2013-05-01 07:28:00,
2013-05-01 03:33:00,63.0,55.7,29.99,South,171,5.8,5.8,77,0.00,CLR,,0.00,WeatherDisplay:10.37,2013-05-01 07:33:00,
2013-05-01 03:38:00,62.9,55.6,29.99,South,186,5.8,5.8,77,0.00,CLR,,0.00,WeatherDisplay:10.37,2013-05-01 07:38:00,
2013-05-01 03:43:00,62.8,55.8,29.99,SSW,192,3.5,3.5,78,0.00,CLR,,0.00,WeatherDisplay:10.37,2013-05-01 07:43:00,
2013-05-01 03:48:00,62.7,55.7,29.99,South,169,3.5,3.5,78,0.00,CLR,,0.00,WeatherDisplay:10.37,2013-05-01 07:48:00,
2013-05-01 03:53:00,62.6,55.6,29.99,South,172,4.6,4.6,78,0.00,CLR,,0.00,WeatherDisplay:10.37,2013-05-01 07:53:00,
2013-05-01 03:58:00,62.4,55.4,29.99,South,187,5.8,5.8,78,0.00,CLR,,0.00,WeatherDisplay:10.37,2013-05-01 07:58:00,
2013-05-01 04:03:00,62.5,55.5,30.00,SSE,168,4.6,4.6,78,0.00,CLR,,0.00,WeatherDisplay:10.37,2013-05-01 08:03:00,
2013-05-01 04:08:00,62.4,55.4,30.00,SSE,162,4.6,0.0,78,0.00,CLR,,0.00,WeatherDisplay:10.37,2013-05-01 08:08:00,
2013-05-01 04:13:00,62.3,55.4,30.00,SSE,168,3.5,3.5,78,0.00,CLR,,0.00,WeatherDisplay:10.37,2013-05-01 08:13:00,
2013-05-01 04:18:00,62.2,55.3,30.00,South,186,1.1,1.1,78,0.00,CLR,,0.00,WeatherDisplay:10.37,2013-05-01 08:18:00,
2013-05-01 04:23:00,62.1,55.5,30.00,SSW,193,1.1,1.1,79,0.00,CLR,,0.00,WeatherDisplay:10.37,2013-05-01 08:23:00,
2013-05-01 04:28:00,62.2,55.3,30.00,South,191,0.0,0.0,78,0.00,CLR,,0.00,WeatherDisplay:10.37,2013-05-01 08:28:00,
2013-05-01 04:33:00,62.1,55.5,30.00,SSE,153,3.5,3.5,79,0.00,CLR,,0.00,WeatherDisplay:10.37,2013-05-01 08:33:00,
2013-05-01 04:38:00,62.1,55.5,30.00,South,184,4.6,0.0,79,0.00,CLR,,0.00,WeatherDisplay:10.37,2013-05-01 08:38:00,
2013-05-01 04:43:00,61.9,55.3,30.00,South,185,2.3,2.3,79,0.00,CLR,,0.00,WeatherDisplay:10.37,2013-05-01 08:43:00,
2013-05-01 04:48:00,61.8,55.2,30.00,South,181,3.5,3.5,79,0.00,CLR,,0.00,WeatherDisplay:10.37,2013-05-01 08:48:00,
2013-05-01 04:53:00,61.8,55.2,30.00,South,181,4.6,4.6,79,0.00,CLR,,0.00,WeatherDisplay:10.37,2013-05-01 08:53:00,
2013-05-01 04:58:00,61.7,55.1,30.00,SSE,167,2.3,0.0,79,0.00,CLR,,0.00,WeatherDisplay:10.37,2013-05-01 08:58:00,
2013-05-01 05:03:00,61.7,55.1,30.00,South,172,3.5,3.5,79,0.00,CLR,,0.00,WeatherDisplay:10.37,2013-05-01 09:03:00,
2013-05-01 05:08:00,61.5,54.9,30.01,South,171,1.1,0.0,79,0.00,CLR,,0.00,WeatherDisplay:10.37,2013-05-01 09:08:00,
2013-05-01 05:13:00,61.5,55.3,30.01,South,178,0.0,1.1,80,0.00,CLR,,0.00,WeatherDisplay:10.37,2013-05-01 09:13:00,
2013-05-01 05:18:00,61.4,55.2,30.01,South,178,1.1,0.0,80,0.00,CLR,,0.00,WeatherDisplay:10.37,2013-05-01 09:18:00,
2013-05-01 05:23:00,61.4,55.2,30.01,South,175,3.5,3.5,80,0.00,CLR,,0.00,WeatherDisplay:10.37,2013-05-01 09:23:00,
2013-05-01 05:28:00,61.3,55.1,30.01,South,175,0.0,0.0,80,0.00,CLR,,0.00,WeatherDisplay:10.37,2013-05-01 09:28:00,
2013-05-01 05:33:00,61.2,55.0,30.01,South,179,3.5,0.0,80,0.00,CLR,,0.00,WeatherDisplay:10.37,2013-05-01 09:33:00,
2013-05-01 05:38:00,61.1,54.9,30.01,South,181,3.5,3.5,80,0.00,CLR,,0.00,WeatherDisplay:10.37,2013-05-01 09:38:00,
2013-05-01 05:43:00,61.0,54.8,30.01,SSE,167,3.0,3.0,80,0.00,CLR,,0.00,WeatherDisplay:10.37,2013-05-01 09:43:00,
2013-05-01 05:48:00,60.9,54.7,30.01,SSE,167,0.0,0.0,80,0.00,CLR,,0.00,WeatherDisplay:10.37,2013-05-01 09:48:00,
2013-05-01 05:53:00,60.8,54.9,30.01,SSE,168,2.3,2.3,81,0.00,CLR,,0.00,WeatherDisplay:10.37,2013-05-01 09:53:00,
2013-05-01 05:58:00,60.8,54.9,30.02,SSE,167,3.5,3.5,81,0.00,CLR,,0.00,WeatherDisplay:10.37,2013-05-01 09:58:00,
2013-05-01 06:03:00,60.7,54.8,30.02,SSE,167,0.0,0.0,81,0.00,CLR,,0.00,WeatherDisplay:10.37,2013-05-01 10:03:00,
2013-05-01 06:08:00,60.7,54.8,30.02,SSE,164,1.1,0.0,81,0.00,CLR,,0.00,WeatherDisplay:10.37,2013-05-01 10:08:00,
2013-05-01 06:13:00,60.6,54.7,30.02,South,188,6.9,6.9,81,0.00,CLR,,0.00,WeatherDisplay:10.37,2013-05-01 10:13:00,
2013-05-01 06:18:00,60.5,54.6,30.02,South,183,0.0,0.0,81,0.00,CLR,,0.00,WeatherDisplay:10.37,2013-05-01 10:18:00,
2013-05-01 06:23:00,60.4,54.5,30.02,South,183,1.1,1.1,81,0.00,CLR,,0.00,WeatherDisplay:10.37,2013-05-01 10:23:00,
2013-05-01 06:28:00,60.4,54.5,30.03,South,178,4.6,4.6,81,0.00,CLR,,0.00,WeatherDisplay:10.37,2013-05-01 10:28:00,
2013-05-01 06:33:00,60.4,54.5,30.03,South,175,5.0,5.0,81,0.00,CLR,,0.00,WeatherDisplay:10.37,2013-05-01 10:33:00,
2013-05-01 06:38:00,60.4,54.5,30.03,South,169,5.8,5.8,81,0.00,CLR,,0.00,WeatherDisplay:10.37,2013-05-01 10:38:00,
2013-05-01 06:43:00,60.4,54.5,30.03,South,169,1.1,0.0,81,0.00,CLR,,0.00,WeatherDisplay:10.37,2013-05-01 10:43:00,
2013-05-01 06:48:00,60.5,54.6,30.04,South,171,3.5,3.5,81,0.00,CLR,,0.00,WeatherDisplay:10.37,2013-05-01 10:48:00,
2013-05-01 06:53:00,60.5,54.6,30.04,South,169,3.5,3.5,81,0.00,CLR,,0.00,WeatherDisplay:10.37,2013-05-01 10:53:00,
2013-05-01 06:58:00,60.5,54.6,30.04,South,171,3.5,0.0,81,0.00,CLR,,0.00,WeatherDisplay:10.37,2013-05-01 10:58:00,
2013-05-01 07:03:00,60.5,54.6,30.04,SSE,168,2.3,0.0,81,0.00,CLR,,0.00,WeatherDisplay:10.37,2013-05-01 11:03:00,
2013-05-01 07:08:00,60.6,54.7,30.05,South,169,3.5,0.0,81,0.00,CLR,,0.00,WeatherDisplay:10.37,2013-05-01 11:08:00,
2013-05-01 07:13:00,60.7,54.8,30.05,South,171,3.5,3.5,81,0.00,CLR,,0.00,WeatherDisplay:10.37,2013-05-01 11:13:00,
2013-05-01 07:18:00,60.9,54.7,30.05,South,176,0.0,2.3,80,0.00,CLR,,0.00,WeatherDisplay:10.37,2013-05-01 11:18:00,
2013-05-01 07:23:00,61.2,55.0,30.06,SSW,192,5.8,5.8,80,0.00,CLR,,0.00,WeatherDisplay:10.37,2013-05-01 11:23:00,
2013-05-01 07:28:00,61.3,54.7,30.06,South,178,2.3,0.0,79,0.00,CLR,,0.00,WeatherDisplay:10.37,2013-05-01 11:28:00,
2013-05-01 07:33:00,61.6,55.0,30.06,SSE,159,2.0,2.0,79,0.00,CLR,,0.00,WeatherDisplay:10.37,2013-05-01 11:33:00,
2013-05-01 07:38:00,61.8,54.9,30.06,SSE,164,2.3,2.3,78,0.00,CLR,,0.00,WeatherDisplay:10.37,2013-05-01 11:38:00,
2013-05-01 07:43:00,62.1,55.2,30.06,South,184,5.8,5.8,78,0.00,CLR,,0.00,WeatherDisplay:10.37,2013-05-01 11:43:00,
2013-05-01 07:48:00,62.6,55.3,30.06,SSE,165,9.2,9.2,77,0.00,CLR,,0.00,WeatherDisplay:10.37,2013-05-01 11:48:00,
2013-05-01 07:53:00,62.9,55.2,30.06,SSE,167,6.9,6.9,76,0.00,CLR,,0.00,WeatherDisplay:10.37,2013-05-01 11:53:00,
2013-05-01 07:58:00,63.2,55.5,30.07,SSE,168,6.9,6.9,76,0.00,CLR,,0.00,WeatherDisplay:10.37,2013-05-01 11:58:00,
2013-05-01 08:03:00,63.5,55.4,30.07,South,178,4.6,4.6,75,0.00,CLR,,0.00,WeatherDisplay:10.37,2013-05-01 12:03:00,
2013-05-01 08:08:00,63.8,55.4,30.06,SSW,192,3.5,3.5,74,0.00,CLR,,0.00,WeatherDisplay:10.37,2013-05-01 12:08:00,
2013-05-01 08:13:00,64.2,55.4,30.07,South,187,6.9,6.9,73,0.00,CLR,,0.00,WeatherDisplay:10.37,2013-05-01 12:13:00,
2013-05-01 08:18:00,64.5,55.7,30.07,South,183,10.4,10.4,73,0.00,CLR,,0.00,WeatherDisplay:10.37,2013-05-01 12:18:00,
2013-05-01 08:23:00,64.9,55.7,30.07,South,175,4.6,4.6,72,0.00,CLR,,0.00,WeatherDisplay:10.37,2013-05-01 12:23:00,
2013-05-01 08:28:00,65.2,55.9,30.07,SSW,195,6.0,6.0,72,0.00,CLR,,0.00,WeatherDisplay:10.37,2013-05-01 12:28:00,
2013-05-01 08:33:00,65.3,55.7,30.07,South,183,10.4,10.4,71,0.00,CLR,,0.00,WeatherDisplay:10.37,2013-05-01 12:33:00,
2013-05-01 08:38:00,65.7,56.0,30.07,South,176,11.5,11.5,71,0.00,CLR,,0.00,WeatherDisplay:10.37,2013-05-01 12:38:00,
2013-05-01 08:43:00,66.1,56.0,30.07,South,182,2.3,2.3,70,0.00,CLR,,0.00,WeatherDisplay:10.37,2013-05-01 12:43:00,
2013-05-01 08:48:00,66.3,55.8,30.08,South,171,9.2,9.2,69,0.00,CLR,,0.00,WeatherDisplay:10.37,2013-05-01 12:48:00,
2013-05-01 08:53:00,66.5,56.0,30.08,SSW,192,9.2,9.2,69,0.00,CLR,,0.00,WeatherDisplay:10.37,2013-05-01 12:53:00,
2013-05-01 08:58:00,66.8,56.3,30.08,South,187,10.4,10.4,69,0.00,CLR,,0.00,WeatherDisplay:10.37,2013-05-01 12:58:00,
2013-05-01 09:03:00,67.5,56.6,30.08,South,185,1.1,1.1,68,0.00,CLR,,0.00,WeatherDisplay:10.37,2013-05-01 13:03:00,
2013-05-01 09:08:00,67.7,56.3,30.08,South,169,4.6,4.6,67,0.00,CLR,,0.00,WeatherDisplay:10.37,2013-05-01 13:08:00,
2013-05-01 09:13:00,67.9,56.5,30.08,South,173,4.6,4.6,67,0.00,CLR,,0.00,WeatherDisplay:10.37,2013-05-01 13:13:00,
2013-05-01 09:18:00,68.2,56.4,30.08,South,187,6.9,6.9,66,0.00,CLR,,0.00,WeatherDisplay:10.37,2013-05-01 13:18:00,
2013-05-01 09:23:00,68.7,56.9,30.08,SW,220,11.5,11.5,66,0.00,CLR,,0.00,WeatherDisplay:10.37,2013-05-01 13:23:00,
2013-05-01 09:28:00,69.0,57.2,30.08,SW,227,10.4,10.4,66,0.00,CLR,,0.00,WeatherDisplay:10.37,2013-05-01 13:28:00,
2013-05-01 09:33:00,69.5,56.8,30.08,SW,215,8.1,8.1,64,0.00,CLR,,0.00,WeatherDisplay:10.37,2013-05-01 13:33:00,
2013-05-01 09:38:00,70.2,57.9,30.08,SSW,207,2.3,2.3,65,0.00,CLR,,0.00,WeatherDisplay:10.37,2013-05-01 13:38:00,
2013-05-01 09:43:00,70.3,57.5,30.08,SSE,163,11.5,11.5,64,0.00,CLR,,0.00,WeatherDisplay:10.37,2013-05-01 13:43:00,
2013-05-01 09:48:00,71.0,57.8,30.08,South,172,4.6,4.6,63,0.00,CLR,,0.00,WeatherDisplay:10.37,2013-05-01 13:48:00,
2013-05-01 09:55:00,71.3,57.6,30.08,SSW,194,11.5,11.5,62,0.00,CLR,,0.00,WeatherDisplay:10.37,2013-05-01 13:55:00,
2013-05-01 10:00:00,71.4,57.7,30.08,South,175,5.8,5.8,62,0.00,CLR,,0.00,WeatherDisplay:10.37,2013-05-01 14:00:00,
2013-05-01 10:05:00,72.0,58.3,30.08,South,173,5.8,5.8,62,0.00,CLR,,0.00,WeatherDisplay:10.37,2013-05-01 14:05:00,
2013-05-01 10:10:00,72.2,58.5,30.08,SSW,202,8.1,8.1,62,0.00,CLR,,0.00,WeatherDisplay:10.37,2013-05-01 14:10:00,
2013-05-01 10:15:00,72.3,58.1,30.08,SW,226,11.5,11.5,61,0.00,CLR,,0.00,WeatherDisplay:10.37,2013-05-01 14:15:00,
2013-05-01 10:20:00,72.8,59.9,30.08,South,184,1.1,1.1,64,0.00,CLR,,0.00,WeatherDisplay:10.37,2013-05-01 14:20:00,
2013-05-01 10:25:00,73.7,58.9,30.08,South,175,10.4,10.4,60,0.00,CLR,,0.00,WeatherDisplay:10.37,2013-05-01 14:25:00,
2013-05-01 10:30:00,73.6,59.3,30.08,South,178,10.4,10.4,61,0.00,CLR,,0.00,WeatherDisplay:10.37,2013-05-01 14:30:00,
2013-05-01 10:35:00,73.8,59.0,30.09,SSW,195,7.0,7.0,60,0.00,CLR,,0.00,WeatherDisplay:10.37,2013-05-01 14:35:00,
2013-05-01 10:40:00,74.0,59.2,30.09,SSW,196,2.3,2.3,60,0.00,CLR,,0.00,WeatherDisplay:10.37,2013-05-01 14:40:00,
2013-05-01 10:45:00,74.4,59.1,30.08,SE,144,8.1,8.1,59,0.00,CLR,,0.00,WeatherDisplay:10.37,2013-05-01 14:45:00,
2013-05-01 10:50:00,74.9,59.1,30.09,SE,136,3.5,3.5,58,0.00,CLR,,0.00,WeatherDisplay:10.37,2013-05-01 14:50:00,
2013-05-01 10:55:00,75.1,59.3,30.09,SE,141,11.5,11.5,58,0.00,CLR,,0.00,WeatherDisplay:10.37,2013-05-01 14:55:00,
2013-05-01 11:00:00,75.0,59.2,30.08,SSW,207,6.0,6.0,58,0.00,CLR,,0.00,WeatherDisplay:10.37,2013-05-01 15:00:00,
2013-05-01 11:05:00,75.6,59.3,30.08,SSE,156,9.2,9.2,57,0.00,CLR,,0.00,WeatherDisplay:10.37,2013-05-01 15:05:00,
2013-05-01 11:10:00,76.2,59.4,30.09,SW,217,10.4,10.4,56,0.00,CLR,,0.00,WeatherDisplay:10.37,2013-05-01 15:10:00,
2013-05-01 11:15:00,76.0,59.7,30.08,South,178,6.9,6.9,57,0.00,CLR,,0.00,WeatherDisplay:10.37,2013-05-01 15:15:00,
2013-05-01 11:20:00,76.0,59.7,30.09,SE,138,5.8,5.8,57,0.00,CLR,,0.00,WeatherDisplay:10.37,2013-05-01 15:20:00,
2013-05-01 11:25:00,76.7,59.3,30.09,SSW,198,11.5,11.5,55,0.00,CLR,,0.00,WeatherDisplay:10.37,2013-05-01 15:25:00,
2013-05-01 11:30:00,76.7,59.3,30.09,South,187,11.0,11.0,55,0.00,CLR,,0.00,WeatherDisplay:10.37,2013-05-01 15:30:00,
2013-05-01 11:35:00,76.7,59.3,30.08,WSW,248,9.2,9.2,55,0.00,CLR,,0.00,WeatherDisplay:10.37,2013-05-01 15:35:00,
2013-05-01 11:40:00,77.5,59.5,30.09,SE,127,6.9,6.9,54,0.00,CLR,,0.00,WeatherDisplay:10.37,2013-05-01 15:40:00,
2013-05-01 11:45:00,78.3,59.8,30.08,SSW,200,6.9,6.9,53,0.00,CLR,,0.00,WeatherDisplay:10.37,2013-05-01 15:45:00,
2013-05-01 11:50:00,77.8,59.8,30.09,South,173,8.1,8.1,54,0.00,CLR,,0.00,WeatherDisplay:10.37,2013-05-01 15:50:00,
2013-05-01 11:55:00,78.2,60.2,30.09,SSE,154,4.6,4.6,54,0.00,CLR,,0.00,WeatherDisplay:10.37,2013-05-01 15:55:00,
2013-05-01 12:00:00,78.7,60.1,30.09,SE,141,6.9,6.9,53,0.00,CLR,,0.00,WeatherDisplay:10.37,2013-05-01 16:00:00,
2013-05-01 12:05:00,79.1,60.0,30.09,SW,224,11.5,11.5,52,0.00,CLR,,0.00,WeatherDisplay:10.37,2013-05-01 16:05:00,
2013-05-01 12:10:00,78.7,59.6,30.08,SW,222,6.9,6.9,52,0.00,CLR,,0.00,WeatherDisplay:10.37,2013-05-01 16:10:00,
2013-05-01 12:15:00,79.1,61.0,30.09,South,178,1.1,0.0,54,0.00,CLR,,0.00,WeatherDisplay:10.37,2013-05-01 16:15:00,
2013-05-01 12:20:00,79.8,60.1,30.09,WSW,249,5.8,5.8,51,0.00,CLR,,0.00,WeatherDisplay:10.37,2013-05-01 16:20:00,
2013-05-01 12:25:00,79.7,60.0,30.08,SSE,159,5.8,5.8,51,0.00,CLR,,0.00,WeatherDisplay:10.37,2013-05-01 16:25:00,
2013-05-01 12:30:00,79.5,60.3,30.08,SE,126,5.8,5.8,52,0.00,CLR,,0.00,WeatherDisplay:10.37,2013-05-01 16:30:00,
2013-05-01 12:35:00,79.6,60.4,30.09,South,180,11.5,11.5,52,0.00,CLR,,0.00,WeatherDisplay:10.37,2013-05-01 16:35:00,
2013-05-01 12:40:00,79.7,60.5,30.09,SW,223,10.0,10.0,52,0.00,CLR,,0.00,WeatherDisplay:10.37,2013-05-01 16:40:00,
2013-05-01 12:45:00,79.8,60.1,30.08,SW,224,5.0,5.0,51,0.00,CLR,,0.00,WeatherDisplay:10.37,2013-05-01 16:45:00,
2013-05-01 12:50:00,80.3,59.4,30.08,SW,225,11.5,11.5,49,0.00,CLR,,0.00,WeatherDisplay:10.37,2013-05-01 16:50:00,
2013-05-01 12:55:00,80.2,58.7,30.08,South,173,12.7,12.7,48,0.00,CLR,,0.00,WeatherDisplay:10.37,2013-05-01 16:55:00,
2013-05-01 13:00:00,80.4,59.5,30.08,SW,222,6.9,6.9,49,0.00,CLR,,0.00,WeatherDisplay:10.37,2013-05-01 17:00:00,
2013-05-01 13:05:00,80.9,59.9,30.08,SSW,206,13.0,13.0,49,0.00,CLR,,0.00,WeatherDisplay:10.37,2013-05-01 17:05:00,
2013-05-01 13:10:00,80.5,59.6,30.08,SW,223,7.0,7.0,49,0.00,CLR,,0.00,WeatherDisplay:10.37,2013-05-01 17:10:00,
2013-05-01 13:15:00,80.4,59.5,30.08,SSW,206,8.1,8.1,49,0.00,CLR,,0.00,WeatherDisplay:10.37,2013-05-01 17:15:00,
2013-05-01 13:20:00,80.5,59.0,30.08,SSW,213,10.0,10.0,48,0.00,CLR,,0.00,WeatherDisplay:10.37,2013-05-01 17:20:00,
2013-05-01 13:25:00,80.5,59.6,30.08,SSE,162,11.5,11.5,49,0.00,CLR,,0.00,WeatherDisplay:10.37,2013-05-01 17:25:00,
2013-05-01 13:30:00,80.3,59.4,30.08,SE,137,5.0,5.0,49,0.00,CLR,,0.00,WeatherDisplay:10.37,2013-05-01 17:30:00,
2013-05-01 13:35:00,80.5,60.1,30.08,ESE,119,10.4,10.4,50,0.00,CLR,,0.00,WeatherDisplay:10.37,2013-05-01 17:35:00,
2013-05-01 13:40:00,81.0,60.0,30.08,SW,230,11.5,11.5,49,0.00,CLR,,0.00,WeatherDisplay:10.37,2013-05-01 17:40:00,
2013-05-01 13:45:00,81.0,59.5,30.08,South,188,4.6,4.6,48,0.00,CLR,,0.00,WeatherDisplay:10.37,2013-05-01 17:45:00,
2013-05-01 13:50:00,80.9,59.9,30.08,East,101,10.4,10.4,49,0.00,CLR,,0.00,WeatherDisplay:10.37,2013-05-01 17:50:00,
2013-05-01 13:55:00,81.9,59.7,30.08,South,175,10.4,10.4,47,0.00,CLR,,0.00,WeatherDisplay:10.37,2013-05-01 17:55:00,
2013-05-01 14:00:00,81.6,60.0,30.08,ESE,120,11.5,11.5,48,0.00,CLR,,0.00,WeatherDisplay:10.37,2013-05-01 18:00:00,
2013-05-01 14:05:00,81.4,59.8,30.08,SSW,196,11.5,11.5,48,0.00,CLR,,0.00,WeatherDisplay:10.37,2013-05-01 18:05:00,
2013-05-01 14:10:00,81.2,60.2,30.08,ESE,117,13.0,13.0,49,0.00,CLR,,0.00,WeatherDisplay:10.37,2013-05-01 18:10:00,
2013-05-01 14:15:00,81.9,60.9,30.08,ESE,123,16.1,16.1,49,0.00,CLR,,0.00,WeatherDisplay:10.37,2013-05-01 18:15:00,
2013-05-01 14:20:00,81.6,59.4,30.08,SE,134,10.4,10.4,47,0.00,CLR,,0.00,WeatherDisplay:10.37,2013-05-01 18:20:00,
2013-05-01 14:25:00,81.6,60.6,30.08,ESE,122,6.9,6.9,49,0.00,CLR,,0.00,WeatherDisplay:10.37,2013-05-01 18:25:00,
2013-05-01 14:30:00,82.0,60.4,30.08,South,186,11.5,11.5,48,0.00,CLR,,0.00,WeatherDisplay:10.37,2013-05-01 18:30:00,
2013-05-01 14:35:00,82.2,60.0,30.08,SSW,192,13.8,13.8,47,0.00,CLR,,0.00,WeatherDisplay:10.37,2013-05-01 18:35:00,
2013-05-01 14:40:00,81.8,60.2,30.09,SSE,165,6.9,6.9,48,0.00,CLR,,0.00,WeatherDisplay:10.37,2013-05-01 18:40:00,
2013-05-01 14:45:00,81.9,59.7,30.08,SW,235,5.8,5.8,47,0.00,CLR,,0.00,WeatherDisplay:10.37,2013-05-01 18:45:00,
2013-05-01 14:50:00,82.3,60.6,30.08,SE,138,4.0,4.0,48,0.00,CLR,,0.00,WeatherDisplay:10.37,2013-05-01 18:50:00,
2013-05-01 14:55:00,82.7,59.8,30.08,South,173,8.1,8.1,46,0.00,CLR,,0.00,WeatherDisplay:10.37,2013-05-01 18:55:00,
2013-05-01 15:00:00,82.7,59.8,30.08,SSE,162,10.4,10.4,46,0.00,CLR,,0.00,WeatherDisplay:10.37,2013-05-01 19:00:00,
2013-05-01 15:05:00,82.9,60.0,30.08,South,190,5.8,5.8,46,0.00,CLR,,0.00,WeatherDisplay:10.37,2013-05-01 19:05:00,
2013-05-01 15:10:00,82.6,59.7,30.08,South,178,8.1,8.1,46,0.00,CLR,,0.00,WeatherDisplay:10.37,2013-05-01 19:10:00,
2013-05-01 15:15:00,82.5,59.6,30.08,SSE,163,11.5,11.5,46,0.00,CLR,,0.00,WeatherDisplay:10.37,2013-05-01 19:15:00,
2013-05-01 15:20:00,83.1,60.8,30.08,West,276,4.6,4.6,47,0.00,CLR,,0.00,WeatherDisplay:10.37,2013-05-01 19:20:00,
2013-05-01 15:25:00,83.5,62.3,30.08,SSE,157,11.5,11.5,49,0.00,CLR,,0.00,WeatherDisplay:10.37,2013-05-01 19:25:00,
2013-05-01 15:30:00,84.1,61.1,30.08,South,173,10.0,10.0,46,0.00,CLR,,0.00,WeatherDisplay:10.37,2013-05-01 19:30:00,
2013-05-01 15:36:00,82.9,61.2,30.08,SE,138,11.5,11.5,48,0.00,CLR,,0.00,WeatherDisplay:10.37,2013-05-01 19:36:00,
2013-05-01 15:41:00,82.9,60.0,30.08,SE,145,12.7,12.7,46,0.00,CLR,,0.00,WeatherDisplay:10.37,2013-05-01 19:41:00,
2013-05-01 15:46:00,83.2,60.3,30.07,SSE,164,10.4,10.4,46,0.00,CLR,,0.00,WeatherDisplay:10.37,2013-05-01 19:46:00,
2013-05-01 15:51:00,83.0,60.7,30.08,SE,138,16.1,16.1,47,0.00,CLR,,0.00,WeatherDisplay:10.37,2013-05-01 19:51:00,
2013-05-01 15:56:00,82.7,60.4,30.07,SSE,165,11.5,11.5,47,0.00,CLR,,0.00,WeatherDisplay:10.37,2013-05-01 19:56:00,
2013-05-01 16:01:00,82.8,60.5,30.07,SSE,166,3.0,3.0,47,0.00,CLR,,0.00,WeatherDisplay:10.37,2013-05-01 20:01:00,
2013-05-01 16:06:00,82.9,60.0,30.07,East,98,3.5,3.5,46,0.00,CLR,,0.00,WeatherDisplay:10.37,2013-05-01 20:06:00,
2013-05-01 16:11:00,82.6,59.7,30.07,SSW,195,7.0,7.0,46,0.00,CLR,,0.00,WeatherDisplay:10.37,2013-05-01 20:11:00,
2013-05-01 16:16:00,82.7,59.2,30.07,SSE,163,12.7,12.7,45,0.00,CLR,,0.00,WeatherDisplay:10.37,2013-05-01 20:16:00,
2013-05-01 16:21:00,82.2,61.1,30.07,East,99,3.5,3.5,49,0.00,CLR,,0.00,WeatherDisplay:10.37,2013-05-01 20:21:00,
2013-05-01 16:26:00,82.7,59.8,30.07,SSW,194,9.2,9.2,46,0.00,CLR,,0.00,WeatherDisplay:10.37,2013-05-01 20:26:00,
2013-05-01 16:31:00,83.4,59.8,30.07,ESE,114,11.5,11.5,45,0.00,CLR,,0.00,WeatherDisplay:10.37,2013-05-01 20:31:00,
2013-05-01 16:36:00,83.1,59.6,30.07,SE,134,11.5,11.5,45,0.00,CLR,,0.00,WeatherDisplay:10.37,2013-05-01 20:36:00,
2013-05-01 16:41:00,83.0,60.1,30.07,SSW,198,12.0,12.0,46,0.00,CLR,,0.00,WeatherDisplay:10.37,2013-05-01 20:41:00,
2013-05-01 16:46:00,82.4,59.5,30.07,SSW,213,3.5,3.5,46,0.00,CLR,,0.00,WeatherDisplay:10.37,2013-05-01 20:46:00,
2013-05-01 16:51:00,82.6,59.1,30.07,SE,137,10.4,10.4,45,0.00,CLR,,0.00,WeatherDisplay:10.37,2013-05-01 20:51:00,
2013-05-01 16:56:00,82.9,58.7,30.07,SSE,157,11.5,11.5,44,0.00,CLR,,0.00,WeatherDisplay:10.37,2013-05-01 20:56:00,
2013-05-01 17:01:00,83.3,58.5,30.08,South,171,11.5,11.5,43,0.00,CLR,,0.00,WeatherDisplay:10.37,2013-05-01 21:01:00,
2013-05-01 17:06:00,83.1,58.9,30.08,SSE,153,11.5,11.5,44,0.00,CLR,,0.00,WeatherDisplay:10.37,2013-05-01 21:06:00,
2013-05-01 17:11:00,83.2,58.4,30.08,ESE,123,10.4,10.4,43,0.00,CLR,,0.00,WeatherDisplay:10.37,2013-05-01 21:11:00,
2013-05-01 17:16:00,83.2,59.0,30.08,ESE,121,6.9,6.9,44,0.00,CLR,,0.00,WeatherDisplay:10.37,2013-05-01 21:16:00,
2013-05-01 17:21:00,83.3,57.8,30.08,SSE,167,16.1,16.1,42,0.00,CLR,,0.00,WeatherDisplay:10.37,2013-05-01 21:21:00,
2013-05-01 17:26:00,83.1,57.6,30.08,SE,140,9.2,9.2,42,0.00,CLR,,0.00,WeatherDisplay:10.37,2013-05-01 21:26:00,
2013-05-01 17:31:00,83.0,56.9,30.08,ESE,117,6.9,6.9,41,0.00,CLR,,0.00,WeatherDisplay:10.37,2013-05-01 21:31:00,
2013-05-01 17:36:00,83.0,56.2,30.08,SE,126,16.0,16.0,40,0.00,CLR,,0.00,WeatherDisplay:10.37,2013-05-01 21:36:00,
2013-05-01 17:41:00,83.0,56.2,30.08,South,182,11.5,11.5,40,0.00,CLR,,0.00,WeatherDisplay:10.37,2013-05-01 21:41:00,
2013-05-01 17:46:00,82.9,56.1,30.08,ESE,121,5.8,5.8,40,0.00,CLR,,0.00,WeatherDisplay:10.37,2013-05-01 21:46:00,
2013-05-01 17:51:00,83.4,56.5,30.08,SSW,207,11.5,11.5,40,0.00,CLR,,0.00,WeatherDisplay:10.37,2013-05-01 21:51:00,
2013-05-01 17:56:00,83.4,55.8,30.08,South,184,10.4,10.4,39,0.00,CLR,,0.00,WeatherDisplay:10.37,2013-05-01 21:56:00,
2013-05-01 18:01:00,83.6,55.3,30.08,SE,142,4.6,4.6,38,0.00,CLR,,0.00,WeatherDisplay:10.37,2013-05-01 22:01:00,
2013-05-01 18:06:00,83.3,55.8,30.08,South,182,16.1,16.1,39,0.00,CLR,,0.00,WeatherDisplay:10.37,2013-05-01 22:06:00,
2013-05-01 18:11:00,82.9,55.4,30.08,SSE,153,16.1,16.1,39,0.00,CLR,,0.00,WeatherDisplay:10.37,2013-05-01 22:11:00,
2013-05-01 18:16:00,83.0,56.2,30.08,South,189,7.0,7.0,40,0.00,CLR,,0.00,WeatherDisplay:10.37,2013-05-01 22:16:00,
2013-05-01 18:22:00,83.0,55.5,30.08,South,169,8.1,8.1,39,0.00,CLR,,0.00,WeatherDisplay:10.37,2013-05-01 22:22:00,
2013-05-01 18:27:00,82.8,55.3,30.08,SSE,161,3.5,3.5,39,0.00,CLR,,0.00,WeatherDisplay:10.37,2013-05-01 22:27:00,
2013-05-01 18:32:00,82.8,56.0,30.08,South,169,3.5,3.5,40,0.00,CLR,,0.00,WeatherDisplay:10.37,2013-05-01 22:32:00,
2013-05-01 18:37:00,82.8,56.0,30.08,South,182,11.5,11.5,40,0.00,CLR,,0.00,WeatherDisplay:10.37,2013-05-01 22:37:00,
2013-05-01 18:42:00,82.5,54.3,30.08,SSW,208,12.7,12.7,38,0.00,CLR,,0.00,WeatherDisplay:10.37,2013-05-01 22:42:00,
2013-05-01 18:47:00,82.5,55.0,30.08,SE,144,10.0,10.0,39,0.00,CLR,,0.00,WeatherDisplay:10.37,2013-05-01 22:47:00,
2013-05-01 18:52:00,82.5,55.0,30.08,South,191,11.5,11.5,39,0.00,CLR,,0.00,WeatherDisplay:10.37,2013-05-01 22:52:00,
2013-05-01 18:57:00,82.3,55.6,30.08,ESE,119,3.5,3.5,40,0.00,CLR,,0.00,WeatherDisplay:10.37,2013-05-01 22:57:00,
2013-05-01 19:02:00,82.3,55.6,30.08,SE,130,10.4,10.4,40,0.00,CLR,,0.00,WeatherDisplay:10.37,2013-05-01 23:02:00,
2013-05-01 19:07:00,82.4,56.3,30.08,South,176,6.0,6.0,41,0.00,CLR,,0.00,WeatherDisplay:10.37,2013-05-01 23:07:00,
2013-05-01 19:12:00,82.1,56.7,30.08,South,169,3.5,3.5,42,0.00,CLR,,0.00,WeatherDisplay:10.37,2013-05-01 23:12:00,
2013-05-01 19:17:00,82.0,56.6,30.08,SSE,161,5.8,5.8,42,0.00,CLR,,0.00,WeatherDisplay:10.37,2013-05-01 23:17:00,
2013-05-01 19:22:00,81.8,57.1,30.08,SE,132,4.6,4.6,43,0.00,CLR,,0.00,WeatherDisplay:10.37,2013-05-01 23:22:00,
2013-05-01 19:27:00,81.7,57.7,30.09,SSE,168,3.5,3.5,44,0.00,CLR,,0.00,WeatherDisplay:10.37,2013-05-01 23:27:00,
2013-05-01 19:32:00,81.5,57.5,30.09,SSE,168,2.0,2.0,44,0.00,CLR,,0.00,WeatherDisplay:10.37,2013-05-01 23:32:00,
2013-05-01 19:37:00,81.3,57.3,30.09,SE,136,2.3,2.3,44,0.00,CLR,,0.00,WeatherDisplay:10.37,2013-05-01 23:37:00,
2013-05-01 19:42:00,81.0,57.0,30.09,SSE,157,11.5,11.5,44,0.00,CLR,,0.00,WeatherDisplay:10.37,2013-05-01 23:42:00,
2013-05-01 19:47:00,80.9,57.6,30.09,SSE,155,3.0,3.0,45,0.00,CLR,,0.00,WeatherDisplay:10.37,2013-05-01 23:47:00,
2013-05-01 19:52:00,80.6,57.3,30.09,SE,136,6.9,6.9,45,0.00,CLR,,0.00,WeatherDisplay:10.37,2013-05-01 23:52:00,
2013-05-01 19:57:00,80.3,57.6,30.09,South,178,9.0,9.0,46,0.00,CLR,,0.00,WeatherDisplay:10.37,2013-05-01 23:57:00,
2013-05-01 20:02:00,80.0,58.0,30.10,SE,136,6.9,6.9,47,0.00,CLR,,0.00,WeatherDisplay:10.37,2013-05-02 00:02:00,
2013-05-01 20:07:00,79.8,57.8,30.10,South,175,4.6,4.6,47,0.00,CLR,,0.00,WeatherDisplay:10.37,2013-05-02 00:07:00,
2013-05-01 20:12:00,79.6,58.2,30.10,SE,145,4.6,4.6,48,0.00,CLR,,0.00,WeatherDisplay:10.37,2013-05-02 00:12:00,
2013-05-01 20:17:00,79.4,58.0,30.10,SSE,165,3.5,3.5,48,0.00,CLR,,0.00,WeatherDisplay:10.37,2013-05-02 00:17:00,
2013-05-01 20:22:00,79.1,58.3,30.10,SSE,153,5.8,5.8,49,0.00,CLR,,0.00,WeatherDisplay:10.37,2013-05-02 00:22:00,
2013-05-01 20:27:00,78.8,57.4,30.10,SSE,147,3.5,3.5,48,0.00,CLR,,0.00,WeatherDisplay:10.37,2013-05-02 00:27:00,
2013-05-01 20:32:00,78.7,57.9,30.10,SE,141,0.0,0.0,49,0.00,CLR,,0.00,WeatherDisplay:10.37,2013-05-02 00:32:00,
2013-05-01 20:37:00,78.4,57.7,30.10,SE,142,1.1,1.1,49,0.00,CLR,,0.00,WeatherDisplay:10.37,2013-05-02 00:37:00,
2013-05-01 20:42:00,78.1,57.9,30.10,SSE,152,3.5,3.5,50,0.00,CLR,,0.00,WeatherDisplay:10.37,2013-05-02 00:42:00,
2013-05-01 20:47:00,77.8,57.7,30.11,ESE,118,2.3,2.3,50,0.00,CLR,,0.00,WeatherDisplay:10.37,2013-05-02 00:47:00,
2013-05-01 20:52:00,77.4,57.9,30.11,SSE,159,3.5,3.5,51,0.00,CLR,,0.00,WeatherDisplay:10.37,2013-05-02 00:52:00,
2013-05-01 20:57:00,77.3,57.8,30.11,South,169,3.5,3.5,51,0.00,CLR,,0.00,WeatherDisplay:10.37,2013-05-02 00:57:00,
2013-05-01 21:02:00,77.1,58.1,30.11,SSE,166,1.1,0.0,52,0.00,CLR,,0.00,WeatherDisplay:10.37,2013-05-02 01:02:00,
2013-05-01 21:07:00,76.8,57.3,30.11,SSE,166,0.0,0.1,51,0.00,CLR,,0.00,WeatherDisplay:10.37,2013-05-02 01:07:00,
2013-05-01 21:12:00,76.5,57.6,30.12,SSE,163,1.1,0.0,52,0.00,CLR,,0.00,WeatherDisplay:10.37,2013-05-02 01:12:00,
2013-05-01 21:17:00,76.2,57.3,30.11,SSE,163,2.3,2.3,52,0.00,CLR,,0.00,WeatherDisplay:10.37,2013-05-02 01:17:00,
2013-05-01 21:22:00,76.1,57.2,30.12,SSE,163,1.1,0.0,52,0.00,CLR,,0.00,WeatherDisplay:10.37,2013-05-02 01:22:00,
2013-05-01 21:27:00,75.8,57.4,30.12,SSE,164,1.1,1.1,53,0.00,CLR,,0.00,WeatherDisplay:10.37,2013-05-02 01:27:00,
2013-05-01 21:32:00,75.6,57.3,30.12,SSE,163,2.3,2.3,53,0.00,CLR,,0.00,WeatherDisplay:10.37,2013-05-02 01:32:00,
2013-05-01 21:37:00,75.5,57.2,30.12,SSE,161,3.5,3.5,53,0.00,CLR,,0.00,WeatherDisplay:10.37,2013-05-02 01:37:00,
2013-05-01 21:42:00,75.3,57.0,30.12,SSE,160,1.1,1.1,53,0.00,CLR,,0.00,WeatherDisplay:10.37,2013-05-02 01:42:00,
2013-05-01 21:48:00,75.1,56.8,30.12,SSE,160,3.5,0.0,53,0.00,CLR,,0.00,WeatherDisplay:10.37,2013-05-02 01:48:00,
2013-05-01 21:53:00,75.0,57.2,30.13,SSE,161,1.1,1.1,54,0.00,CLR,,0.00,WeatherDisplay:10.37,2013-05-02 01:53:00,
2013-05-01 21:58:00,74.7,56.9,30.13,SSE,161,3.5,0.0,54,0.00,CLR,,0.00,WeatherDisplay:10.37,2013-05-02 01:58:00,
2013-05-01 22:03:00,74.5,56.8,30.13,SSE,161,2.3,2.3,54,0.00,CLR,,0.00,WeatherDisplay:10.37,2013-05-02 02:03:00,
2013-05-01 22:08:00,74.3,56.6,30.13,SSE,149,0.0,2.2,54,0.00,CLR,,0.00,WeatherDisplay:10.37,2013-05-02 02:08:00,
2013-05-01 22:13:00,74.2,56.5,30.13,SSE,153,0.0,0.1,54,0.00,CLR,,0.00,WeatherDisplay:10.37,2013-05-02 02:13:00,
2013-05-01 22:18:00,74.1,56.4,30.13,SSE,153,1.1,0.0,54,0.00,CLR,,0.00,WeatherDisplay:10.37,2013-05-02 02:18:00,
2013-05-01 22:23:00,73.9,56.7,30.13,SSE,154,3.0,3.0,55,0.00,CLR,,0.00,WeatherDisplay:10.37,2013-05-02 02:23:00,
2013-05-01 22:28:00,73.7,56.5,30.13,SSE,154,1.1,0.0,55,0.00,CLR,,0.00,WeatherDisplay:10.37,2013-05-02 02:28:00,
2013-05-01 22:33:00,73.5,56.3,30.14,SSE,154,0.0,0.1,55,0.00,CLR,,0.00,WeatherDisplay:10.37,2013-05-02 02:33:00,
2013-05-01 22:38:00,73.3,56.2,30.13,SSE,154,3.5,0.0,55,0.00,CLR,,0.00,WeatherDisplay:10.37,2013-05-02 02:38:00,
2013-05-01 22:43:00,73.1,56.5,30.14,SSE,153,0.0,0.4,56,0.00,CLR,,0.00,WeatherDisplay:10.37,2013-05-02 02:43:00,
2013-05-01 22:48:00,72.9,56.3,30.14,SSE,153,1.1,0.0,56,0.00,CLR,,0.00,WeatherDisplay:10.37,2013-05-02 02:48:00,
2013-05-01 22:53:00,72.8,56.2,30.14,SSE,154,0.0,0.0,56,0.00,CLR,,0.00,WeatherDisplay:10.37,2013-05-02 02:53:00,
2013-05-01 22:58:00,72.6,56.0,30.14,SSE,154,3.5,0.0,56,0.00,CLR,,0.00,WeatherDisplay:10.37,2013-05-02 02:58:00,
2013-05-01 23:03:00,72.4,55.8,30.14,SSE,154,0.0,0.0,56,0.00,CLR,,0.00,WeatherDisplay:10.37,2013-05-02 03:03:00,
2013-05-01 23:08:00,72.2,56.1,30.14,SSE,154,1.1,0.0,57,0.00,CLR,,0.00,WeatherDisplay:10.37,2013-05-02 03:08:00,
2013-05-01 23:13:00,72.0,55.9,30.14,SSE,154,0.0,0.0,57,0.00,CLR,,0.00,WeatherDisplay:10.37,2013-05-02 03:13:00,
2013-05-01 23:18:00,71.7,56.1,30.14,SSE,153,1.1,0.0,58,0.00,CLR,,0.00,WeatherDisplay:10.37,2013-05-02 03:18:00,
2013-05-01 23:23:00,71.6,56.0,30.14,SSE,152,3.5,3.5,58,0.00,CLR,,0.00,WeatherDisplay:10.37,2013-05-02 03:23:00,
2013-05-01 23:28:00,71.5,55.9,30.13,SE,136,3.5,3.5,58,0.00,CLR,,0.00,WeatherDisplay:10.37,2013-05-02 03:28:00,
2013-05-01 23:33:00,71.3,55.8,30.13,SE,136,0.0,0.0,58,0.00,CLR,,0.00,WeatherDisplay:10.37,2013-05-02 03:33:00,
2013-05-01 23:38:00,71.2,56.1,30.13,SE,136,3.5,3.5,59,0.00,CLR,,0.00,WeatherDisplay:10.37,2013-05-02 03:38:00,
2013-05-01 23:43:00,70.9,55.9,30.14,SE,136,0.0,0.0,59,0.00,CLR,,0.00,WeatherDisplay:10.37,2013-05-02 03:43:00,
2013-05-01 23:48:00,70.6,55.6,30.14,SE,136,1.0,1.0,59,0.00,CLR,,0.00,WeatherDisplay:10.37,2013-05-02 03:48:00,
2013-05-01 23:53:00,70.3,55.8,30.14,SE,136,0.0,0.0,60,0.00,CLR,,0.00,WeatherDisplay:10.37,2013-05-02 03:53:00,
2013-05-01 23:58:00,70.2,55.7,30.14,SE,136,0.0,0.0,60,0.00,CLR,,0.00,WeatherDisplay:10.37,2013-05-02 03:58:00,